sensor_id;sensor_type;location;lat;lon;timestamp;pressure;altitude;pressure_sealevel;temperature
19061;BMP280;9663;48.996;8.334;2022-09-01T00:01:26;100477.44;;;22.17
19061;BMP280;9663;48.996;8.334;2022-09-01T00:03:57;100477.50;;;22.15
19061;BMP280;9663;48.996;8.334;2022-09-01T00:06:29;100471.72;;;22.10
19061;BMP280;9663;48.996;8.334;2022-09-01T00:09:01;100474.44;;;22.07
19061;BMP280;9663;48.996;8.334;2022-09-01T00:11:29;100479.75;;;22.04
19061;BMP280;9663;48.996;8.334;2022-09-01T00:13:57;100478.22;;;22.00
19061;BMP280;9663;48.996;8.334;2022-09-01T00:16:22;100481.88;;;21.96
19061;BMP280;9663;48.996;8.334;2022-09-01T00:18:52;100479.34;;;21.95
19061;BMP280;9663;48.996;8.334;2022-09-01T00:21:26;100476.97;;;21.90
19061;BMP280;9663;48.996;8.334;2022-09-01T00:23:53;100481.44;;;21.87
19061;BMP280;9663;48.996;8.334;2022-09-01T00:26:19;100484.09;;;21.86
19061;BMP280;9663;48.996;8.334;2022-09-01T00:28:45;100479.00;;;21.84
19061;BMP280;9663;48.996;8.334;2022-09-01T00:31:12;100483.34;;;21.84
19061;BMP280;9663;48.996;8.334;2022-09-01T00:33:40;100479.06;;;21.83
19061;BMP280;9663;48.996;8.334;2022-09-01T00:36:06;100474.81;;;21.82
19061;BMP280;9663;48.996;8.334;2022-09-01T00:38:33;100469.81;;;21.79
19061;BMP280;9663;48.996;8.334;2022-09-01T00:41:00;100477.63;;;21.77
19061;BMP280;9663;48.996;8.334;2022-09-01T00:43:49;100466.66;;;21.72
19061;BMP280;9663;48.996;8.334;2022-09-01T00:46:33;100473.66;;;21.70
19061;BMP280;9663;48.996;8.334;2022-09-01T00:49:11;100474.63;;;21.68
19061;BMP280;9663;48.996;8.334;2022-09-01T00:51:42;100469.53;;;21.66
19061;BMP280;9663;48.996;8.334;2022-09-01T00:54:13;100471.34;;;21.64
19061;BMP280;9663;48.996;8.334;2022-09-01T00:56:41;100470.56;;;21.62
19061;BMP280;9663;48.996;8.334;2022-09-01T00:59:09;100474.88;;;21.62
19061;BMP280;9663;48.996;8.334;2022-09-01T01:01:36;100475.94;;;21.58
19061;BMP280;9663;48.996;8.334;2022-09-01T01:04:11;100467.50;;;21.54
19061;BMP280;9663;48.996;8.334;2022-09-01T01:07:05;100466.94;;;21.48
19061;BMP280;9663;48.996;8.334;2022-09-01T01:09:54;100466.19;;;21.46
19061;BMP280;9663;48.996;8.334;2022-09-01T01:12:20;100463.59;;;21.46
19061;BMP280;9663;48.996;8.334;2022-09-01T01:14:48;100466.19;;;21.46
19061;BMP280;9663;48.996;8.334;2022-09-01T01:17:19;100456.00;;;21.43
19061;BMP280;9663;48.996;8.334;2022-09-01T01:19:56;100451.75;;;21.41
19061;BMP280;9663;48.996;8.334;2022-09-01T01:23:02;100462.22;;;21.38
19061;BMP280;9663;48.996;8.334;2022-09-01T01:25:46;100459.09;;;21.31
19061;BMP280;9663;48.996;8.334;2022-09-01T01:28:19;100449.66;;;21.30
19061;BMP280;9663;48.996;8.334;2022-09-01T01:31:04;100454.31;;;21.22
19061;BMP280;9663;48.996;8.334;2022-09-01T01:33:35;100456.06;;;21.22
19061;BMP280;9663;48.996;8.334;2022-09-01T01:36:07;100449.28;;;21.19
19061;BMP280;9663;48.996;8.334;2022-09-01T01:38:34;100463.03;;;21.20
19061;BMP280;9663;48.996;8.334;2022-09-01T01:41:01;100462.28;;;21.18
19061;BMP280;9663;48.996;8.334;2022-09-01T01:43:28;100470.91;;;21.17
19061;BMP280;9663;48.996;8.334;2022-09-01T01:45:56;100464.13;;;21.14
19061;BMP280;9663;48.996;8.334;2022-09-01T01:48:28;100463.34;;;21.12
19061;BMP280;9663;48.996;8.334;2022-09-01T01:50:59;100464.28;;;21.11
19061;BMP280;9663;48.996;8.334;2022-09-01T01:53:26;100463.50;;;21.09
19061;BMP280;9663;48.996;8.334;2022-09-01T01:55:52;100471.28;;;21.08
19061;BMP280;9663;48.996;8.334;2022-09-01T01:58:21;100468.81;;;21.06
19061;BMP280;9663;48.996;8.334;2022-09-01T02:00:51;100470.59;;;21.04
19061;BMP280;9663;48.996;8.334;2022-09-01T02:03:22;100467.25;;;21.02
19061;BMP280;9663;48.996;8.334;2022-09-01T02:05:53;100468.22;;;21.00
19061;BMP280;9663;48.996;8.334;2022-09-01T02:08:22;100466.59;;;20.98
19061;BMP280;9663;48.996;8.334;2022-09-01T02:10:53;100473.56;;;20.96
19061;BMP280;9663;48.996;8.334;2022-09-01T02:13:23;100467.59;;;20.95
19061;BMP280;9663;48.996;8.334;2022-09-01T02:15:58;100460.81;;;20.93
19061;BMP280;9663;48.996;8.334;2022-09-01T02:18:41;100465.13;;;20.92
19061;BMP280;9663;48.996;8.334;2022-09-01T02:21:10;100463.44;;;20.91
19061;BMP280;9663;48.996;8.334;2022-09-01T02:23:38;100472.09;;;20.90
19061;BMP280;9663;48.996;8.334;2022-09-01T02:26:07;100468.66;;;20.90
19061;BMP280;9663;48.996;8.334;2022-09-01T02:28:37;100464.44;;;20.89
19061;BMP280;9663;48.996;8.334;2022-09-01T02:31:09;100463.66;;;20.87
19061;BMP280;9663;48.996;8.334;2022-09-01T02:33:37;100464.63;;;20.84
19061;BMP280;9663;48.996;8.334;2022-09-01T02:36:10;100466.56;;;20.79
19061;BMP280;9663;48.996;8.334;2022-09-01T02:38:39;100458.88;;;20.78
19061;BMP280;9663;48.996;8.334;2022-09-01T02:41:06;100457.13;;;20.78
19061;BMP280;9663;48.996;8.334;2022-09-01T02:43:32;100460.63;;;20.77
19061;BMP280;9663;48.996;8.334;2022-09-01T02:46:00;100464.94;;;20.77
19061;BMP280;9663;48.996;8.334;2022-09-01T02:48:39;100459.88;;;20.75
19061;BMP280;9663;48.996;8.334;2022-09-01T02:51:10;100465.00;;;20.75
19061;BMP280;9663;48.996;8.334;2022-09-01T02:53:37;100460.81;;;20.73
19061;BMP280;9663;48.996;8.334;2022-09-01T02:56:08;100459.97;;;20.72
19061;BMP280;9663;48.996;8.334;2022-09-01T02:58:37;100454.81;;;20.72
19061;BMP280;9663;48.996;8.334;2022-09-01T03:01:24;100460.88;;;20.71
19061;BMP280;9663;48.996;8.334;2022-09-01T03:03:54;100460.03;;;20.71
19061;BMP280;9663;48.996;8.334;2022-09-01T03:06:21;100454.88;;;20.71
19061;BMP280;9663;48.996;8.334;2022-09-01T03:08:54;100451.38;;;20.72
19061;BMP280;9663;48.996;8.334;2022-09-01T03:11:22;100450.56;;;20.71
19061;BMP280;9663;48.996;8.334;2022-09-01T03:13:49;100457.47;;;20.71
19061;BMP280;9663;48.996;8.334;2022-09-01T03:16:15;100450.63;;;20.70
19061;BMP280;9663;48.996;8.334;2022-09-01T03:18:41;100445.53;;;20.68
19061;BMP280;9663;48.996;8.334;2022-09-01T03:21:08;100445.59;;;20.67
19061;BMP280;9663;48.996;8.334;2022-09-01T03:23:35;100444.75;;;20.66
19061;BMP280;9663;48.996;8.334;2022-09-01T03:26:02;100443.97;;;20.64
19061;BMP280;9663;48.996;8.334;2022-09-01T03:28:28;100452.56;;;20.65
19061;BMP280;9663;48.996;8.334;2022-09-01T03:30:56;100458.59;;;20.64
19061;BMP280;9663;48.996;8.334;2022-09-01T03:33:25;100462.13;;;20.61
19061;BMP280;9663;48.996;8.334;2022-09-01T03:35:52;100462.19;;;20.60
19061;BMP280;9663;48.996;8.334;2022-09-01T03:38:18;100458.00;;;20.57
19061;BMP280;9663;48.996;8.334;2022-09-01T03:40:55;100460.66;;;20.56
19061;BMP280;9663;48.996;8.334;2022-09-01T03:43:31;100464.97;;;20.56
19061;BMP280;9663;48.996;8.334;2022-09-01T03:45:58;100459.09;;;20.52
19061;BMP280;9663;48.996;8.334;2022-09-01T03:48:27;100458.25;;;20.52
19061;BMP280;9663;48.996;8.334;2022-09-01T03:50:54;100459.22;;;20.49
19061;BMP280;9663;48.996;8.334;2022-09-01T03:53:23;100454.97;;;20.48
19061;BMP280;9663;48.996;8.334;2022-09-01T03:55:52;100460.13;;;20.48
19061;BMP280;9663;48.996;8.334;2022-09-01T03:58:19;100457.53;;;20.48
19061;BMP280;9663;48.996;8.334;2022-09-01T04:00:57;100466.16;;;20.47
19061;BMP280;9663;48.996;8.334;2022-09-01T04:03:30;100450.72;;;20.47
19061;BMP280;9663;48.996;8.334;2022-09-01T04:05:59;100455.91;;;20.46
19061;BMP280;9663;48.996;8.334;2022-09-01T04:08:26;100444.84;;;20.44
19061;BMP280;9663;48.996;8.334;2022-09-01T04:10:58;100456.06;;;20.43
19061;BMP280;9663;48.996;8.334;2022-09-01T04:13:37;100452.69;;;20.41
19061;BMP280;9663;48.996;8.334;2022-09-01T04:16:04;100457.00;;;20.40
19061;BMP280;9663;48.996;8.334;2022-09-01T04:18:50;100453.66;;;20.38
19061;BMP280;9663;48.996;8.334;2022-09-01T04:21:16;100460.56;;;20.38
19061;BMP280;9663;48.996;8.334;2022-09-01T04:23:42;100461.47;;;20.37
19061;BMP280;9663;48.996;8.334;2022-09-01T04:26:12;100452.13;;;20.34
19061;BMP280;9663;48.996;8.334;2022-09-01T04:28:47;100457.41;;;20.31
19061;BMP280;9663;48.996;8.334;2022-09-01T04:31:19;100463.44;;;20.30
19061;BMP280;9663;48.996;8.334;2022-09-01T04:33:49;100467.00;;;20.28
19061;BMP280;9663;48.996;8.334;2022-09-01T04:36:28;100463.72;;;20.24
19061;BMP280;9663;48.996;8.334;2022-09-01T04:38:58;100460.28;;;20.24
19061;BMP280;9663;48.996;8.334;2022-09-01T04:41:29;100462.97;;;20.21
19061;BMP280;9663;48.996;8.334;2022-09-01T04:44:00;100464.72;;;20.20
19061;BMP280;9663;48.996;8.334;2022-09-01T04:46:31;100461.31;;;20.20
19061;BMP280;9663;48.996;8.334;2022-09-01T04:49:02;100458.78;;;20.18
19061;BMP280;9663;48.996;8.334;2022-09-01T04:51:33;100458.78;;;20.18
19061;BMP280;9663;48.996;8.334;2022-09-01T04:54:01;100453.63;;;20.18
19061;BMP280;9663;48.996;8.334;2022-09-01T04:56:27;100454.47;;;20.19
19061;BMP280;9663;48.996;8.334;2022-09-01T04:59:00;100450.13;;;20.19
19061;BMP280;9663;48.996;8.334;2022-09-01T05:01:27;100447.50;;;20.21
19061;BMP280;9663;48.996;8.334;2022-09-01T05:03:53;100450.03;;;20.22
19061;BMP280;9663;48.996;8.334;2022-09-01T05:06:28;100450.81;;;20.24
19061;BMP280;9663;48.996;8.334;2022-09-01T05:08:54;100455.88;;;20.26
19061;BMP280;9663;48.996;8.334;2022-09-01T05:11:23;100452.44;;;20.27
19061;BMP280;9663;48.996;8.334;2022-09-01T05:13:50;100459.22;;;20.29
19061;BMP280;9663;48.996;8.334;2022-09-01T05:16:20;100457.34;;;20.33
19061;BMP280;9663;48.996;8.334;2022-09-01T05:18:49;100454.56;;;20.37
19061;BMP280;9663;48.996;8.334;2022-09-01T05:21:19;100460.41;;;20.41
19061;BMP280;9663;48.996;8.334;2022-09-01T05:23:49;100457.78;;;20.42
19061;BMP280;9663;48.996;8.334;2022-09-01T05:26:31;100451.69;;;20.45
19061;BMP280;9663;48.996;8.334;2022-09-01T05:29:03;100454.91;;;20.50
19061;BMP280;9663;48.996;8.334;2022-09-01T05:31:34;100456.50;;;20.52
19061;BMP280;9663;48.996;8.334;2022-09-01T05:34:03;100456.25;;;20.58
19061;BMP280;9663;48.996;8.334;2022-09-01T05:36:30;100462.88;;;20.63
19061;BMP280;9663;48.996;8.334;2022-09-01T05:38:58;100459.34;;;20.67
19061;BMP280;9663;48.996;8.334;2022-09-01T05:41:25;100461.78;;;20.70
19061;BMP280;9663;48.996;8.334;2022-09-01T05:43:51;100465.09;;;20.74
19061;BMP280;9663;48.996;8.334;2022-09-01T05:46:24;100469.13;;;20.79
19061;BMP280;9663;48.996;8.334;2022-09-01T05:48:53;100467.31;;;20.81
19061;BMP280;9663;48.996;8.334;2022-09-01T05:51:24;100463.56;;;20.88
19061;BMP280;9663;48.996;8.334;2022-09-01T05:53:53;100469.38;;;20.93
19061;BMP280;9663;48.996;8.334;2022-09-01T05:56:25;100464.84;;;20.98
19061;BMP280;9663;48.996;8.334;2022-09-01T05:58:52;100463.78;;;21.03
19061;BMP280;9663;48.996;8.334;2022-09-01T06:01:26;100470.41;;;21.09
19061;BMP280;9663;48.996;8.334;2022-09-01T06:03:55;100464.22;;;21.13
19061;BMP280;9663;48.996;8.334;2022-09-01T06:06:39;100465.63;;;21.20
19061;BMP280;9663;48.996;8.334;2022-09-01T06:09:07;100467.16;;;21.24
19061;BMP280;9663;48.996;8.334;2022-09-01T06:11:33;100466.81;;;21.31
19061;BMP280;9663;48.996;8.334;2022-09-01T06:14:00;100472.63;;;21.36
19061;BMP280;9663;48.996;8.334;2022-09-01T06:16:27;100468.97;;;21.40
19061;BMP280;9663;48.996;8.334;2022-09-01T06:18:54;100459.19;;;21.48
19061;BMP280;9663;48.996;8.334;2022-09-01T06:21:22;100466.50;;;21.57
19061;BMP280;9663;48.996;8.334;2022-09-01T06:23:50;100462.75;;;21.64
19061;BMP280;9663;48.996;8.334;2022-09-01T06:28:49;100469.88;;;21.77
19061;BMP280;9663;48.996;8.334;2022-09-01T06:31:24;100460.09;;;21.84
19061;BMP280;9663;48.996;8.334;2022-09-01T06:33:52;100469.22;;;21.90
19061;BMP280;9663;48.996;8.334;2022-09-01T06:36:21;100479.97;;;22.00
19061;BMP280;9663;48.996;8.334;2022-09-01T06:38:49;100475.25;;;22.08
19061;BMP280;9663;48.996;8.334;2022-09-01T06:41:17;100476.50;;;22.18
19061;BMP280;9663;48.996;8.334;2022-09-01T06:43:53;100474.50;;;22.24
19061;BMP280;9663;48.996;8.334;2022-09-01T06:46:21;100471.50;;;22.33
19061;BMP280;9663;48.996;8.334;2022-09-01T06:48:49;100478.78;;;22.42
19061;BMP280;9663;48.996;8.334;2022-09-01T06:51:20;100479.25;;;22.50
19061;BMP280;9663;48.996;8.334;2022-09-01T06:53:49;100484.06;;;22.57
19061;BMP280;9663;48.996;8.334;2022-09-01T06:56:16;100487.19;;;22.64
19061;BMP280;9663;48.996;8.334;2022-09-01T06:58:45;100485.97;;;22.71
19061;BMP280;9663;48.996;8.334;2022-09-01T07:01:15;100491.41;;;22.81
19061;BMP280;9663;48.996;8.334;2022-09-01T07:03:45;100492.81;;;22.88
19061;BMP280;9663;48.996;8.334;2022-09-01T07:06:12;100487.41;;;22.93
19061;BMP280;9663;48.996;8.334;2022-09-01T07:08:39;100487.13;;;22.99
19061;BMP280;9663;48.996;8.334;2022-09-01T07:11:16;100490.06;;;23.08
19061;BMP280;9663;48.996;8.334;2022-09-01T07:13:42;100481.81;;;23.17
19061;BMP280;9663;48.996;8.334;2022-09-01T07:16:19;100487.28;;;23.28
19061;BMP280;9663;48.996;8.334;2022-09-01T07:18:49;100493.00;;;23.34
19061;BMP280;9663;48.996;8.334;2022-09-01T07:21:16;100496.09;;;23.41
19061;BMP280;9663;48.996;8.334;2022-09-01T07:23:42;100497.59;;;23.45
19061;BMP280;9663;48.996;8.334;2022-09-01T07:26:09;100496.50;;;23.49
19061;BMP280;9663;48.996;8.334;2022-09-01T07:28:37;100501.38;;;23.55
19061;BMP280;9663;48.996;8.334;2022-09-01T07:31:04;100490.56;;;23.63
19061;BMP280;9663;48.996;8.334;2022-09-01T07:33:30;100496.81;;;23.75
19061;BMP280;9663;48.996;8.334;2022-09-01T07:35:58;100500.50;;;23.86
19061;BMP280;9663;48.996;8.334;2022-09-01T07:38:25;100502.69;;;23.94
19061;BMP280;9663;48.996;8.334;2022-09-01T07:40:52;100506.63;;;24.01
19061;BMP280;9663;48.996;8.334;2022-09-01T07:43:24;100503.72;;;24.06
19061;BMP280;9663;48.996;8.334;2022-09-01T07:45:55;100504.38;;;24.10
19061;BMP280;9663;48.996;8.334;2022-09-01T07:48:25;100499.84;;;24.13
19061;BMP280;9663;48.996;8.334;2022-09-01T07:50:54;100500.25;;;24.21
19061;BMP280;9663;48.996;8.334;2022-09-01T07:53:28;100503.22;;;24.31
19061;BMP280;9663;48.996;8.334;2022-09-01T07:56:03;100503.50;;;24.40
19061;BMP280;9663;48.996;8.334;2022-09-01T07:58:32;100505.44;;;24.52
19061;BMP280;9663;48.996;8.334;2022-09-01T08:00:58;100509.06;;;24.63
19061;BMP280;9663;48.996;8.334;2022-09-01T08:03:28;100499.75;;;24.75
19061;BMP280;9663;48.996;8.334;2022-09-01T08:05:55;100511.38;;;24.83
19061;BMP280;9663;48.996;8.334;2022-09-01T08:08:26;100503.88;;;24.92
19061;BMP280;9663;48.996;8.334;2022-09-01T08:10:52;100511.06;;;25.03
19061;BMP280;9663;48.996;8.334;2022-09-01T08:13:18;100504.59;;;25.10
19061;BMP280;9663;48.996;8.334;2022-09-01T08:15:44;100509.88;;;25.22
19061;BMP280;9663;48.996;8.334;2022-09-01T08:18:11;100510.72;;;25.36
19061;BMP280;9663;48.996;8.334;2022-09-01T08:20:39;100518.53;;;25.50
19061;BMP280;9663;48.996;8.334;2022-09-01T08:23:12;100512.53;;;25.64
19061;BMP280;9663;48.996;8.334;2022-09-01T08:25:38;100509.06;;;25.77
19061;BMP280;9663;48.996;8.334;2022-09-01T08:28:05;100506.44;;;25.91
19061;BMP280;9663;48.996;8.334;2022-09-01T08:30:31;100514.03;;;26.08
19061;BMP280;9663;48.996;8.334;2022-09-01T08:32:59;100508.63;;;26.24
19061;BMP280;9663;48.996;8.334;2022-09-01T08:35:25;100502.53;;;26.38
19061;BMP280;9663;48.996;8.334;2022-09-01T08:37:54;100505.91;;;26.52
19061;BMP280;9663;48.996;8.334;2022-09-01T08:40:21;100504.91;;;26.67
19061;BMP280;9663;48.996;8.334;2022-09-01T08:43:10;100507.00;;;26.74
19061;BMP280;9663;48.996;8.334;2022-09-01T08:45:50;100510.59;;;26.86
19061;BMP280;9663;48.996;8.334;2022-09-01T08:48:27;100508.84;;;26.99
19061;BMP280;9663;48.996;8.334;2022-09-01T08:54:19;100503.63;;;27.23
19061;BMP280;9663;48.996;8.334;2022-09-01T08:56:51;100511.47;;;27.36
19061;BMP280;9663;48.996;8.334;2022-09-01T08:59:19;100510.09;;;27.43
19061;BMP280;9663;48.996;8.334;2022-09-01T09:05:04;100510.19;;;27.41
19061;BMP280;9663;48.996;8.334;2022-09-01T09:07:51;100510.66;;;27.48
19061;BMP280;9663;48.996;8.334;2022-09-01T09:10:39;100507.78;;;27.63
19061;BMP280;9663;48.996;8.334;2022-09-01T09:16:16;100507.50;;;28.03
19061;BMP280;9663;48.996;8.334;2022-09-01T09:18:58;100507.53;;;28.26
19061;BMP280;9663;48.996;8.334;2022-09-01T09:24:12;100504.00;;;28.61
19061;BMP280;9663;48.996;8.334;2022-09-01T09:26:40;100496.38;;;28.71
19061;BMP280;9663;48.996;8.334;2022-09-01T09:29:06;100501.53;;;28.83
19061;BMP280;9663;48.996;8.334;2022-09-01T09:31:38;100496.78;;;28.99
19061;BMP280;9663;48.996;8.334;2022-09-01T09:34:37;100497.75;;;29.09
19061;BMP280;9663;48.996;8.334;2022-09-01T09:37:29;100489.94;;;29.20
19061;BMP280;9663;48.996;8.334;2022-09-01T09:40:12;100491.53;;;29.33
19061;BMP280;9663;48.996;8.334;2022-09-01T09:43:04;100492.13;;;29.36
19061;BMP280;9663;48.996;8.334;2022-09-01T09:45:39;100491.56;;;29.44
19061;BMP280;9663;48.996;8.334;2022-09-01T09:48:29;100483.47;;;29.47
19061;BMP280;9663;48.996;8.334;2022-09-01T09:50:55;100484.91;;;29.62
19061;BMP280;9663;48.996;8.334;2022-09-01T09:53:39;100489.78;;;29.77
19061;BMP280;9663;48.996;8.334;2022-09-01T09:56:14;100489.03;;;29.97
19061;BMP280;9663;48.996;8.334;2022-09-01T09:58:45;100480.53;;;30.15
19061;BMP280;9663;48.996;8.334;2022-09-01T10:01:33;100475.97;;;30.28
19061;BMP280;9663;48.996;8.334;2022-09-01T10:04:00;100474.88;;;30.41
19061;BMP280;9663;48.996;8.334;2022-09-01T10:06:41;100474.06;;;30.41
19061;BMP280;9663;48.996;8.334;2022-09-01T10:09:35;100475.41;;;30.35
19061;BMP280;9663;48.996;8.334;2022-09-01T10:12:04;100478.25;;;30.32
19061;BMP280;9663;48.996;8.334;2022-09-01T10:14:49;100472.66;;;30.26
19061;BMP280;9663;48.996;8.334;2022-09-01T10:17:41;100469.22;;;30.25
19061;BMP280;9663;48.996;8.334;2022-09-01T10:20:24;100468.00;;;30.29
19061;BMP280;9663;48.996;8.334;2022-09-01T10:22:52;100466.53;;;30.47
19061;BMP280;9663;48.996;8.334;2022-09-01T10:25:25;100469.41;;;30.64
19061;BMP280;9663;48.996;8.334;2022-09-01T10:28:00;100469.47;;;30.85
19061;BMP280;9663;48.996;8.334;2022-09-01T10:30:29;100464.28;;;30.94
19061;BMP280;9663;48.996;8.334;2022-09-01T10:32:58;100473.09;;;30.93
19061;BMP280;9663;48.996;8.334;2022-09-01T10:35:33;100462.41;;;30.85
19061;BMP280;9663;48.996;8.334;2022-09-01T10:38:06;100457.06;;;30.87
19061;BMP280;9663;48.996;8.334;2022-09-01T10:45:54;100448.16;;;31.28
19061;BMP280;9663;48.996;8.334;2022-09-01T10:53:40;100452.19;;;31.62
19061;BMP280;9663;48.996;8.334;2022-09-01T11:10:05;100432.00;;;32.30
19061;BMP280;9663;48.996;8.334;2022-09-01T11:17:55;100436.03;;;32.62
19061;BMP280;9663;48.996;8.334;2022-09-01T11:20:28;100438.94;;;32.68
19061;BMP280;9663;48.996;8.334;2022-09-01T11:23:05;100429.94;;;32.71
19061;BMP280;9663;48.996;8.334;2022-09-01T11:36:13;100411.56;;;36.69
19061;BMP280;9663;48.996;8.334;2022-09-01T11:39:29;100397.97;;;38.24
19061;BMP280;9663;48.996;8.334;2022-09-01T11:42:08;100391.41;;;39.37
19061;BMP280;9663;48.996;8.334;2022-09-01T11:47:38;100379.28;;;41.00
19061;BMP280;9663;48.996;8.334;2022-09-01T11:50:20;100382.91;;;41.33
19061;BMP280;9663;48.996;8.334;2022-09-01T11:53:07;100393.13;;;40.41
19061;BMP280;9663;48.996;8.334;2022-09-01T11:55:42;100388.47;;;40.02
19061;BMP280;9663;48.996;8.334;2022-09-01T11:58:33;100382.50;;;40.00
19061;BMP280;9663;48.996;8.334;2022-09-01T12:01:22;100377.63;;;40.72
19061;BMP280;9663;48.996;8.334;2022-09-01T12:03:50;100387.88;;;41.49
19061;BMP280;9663;48.996;8.334;2022-09-01T12:06:27;100377.63;;;42.18
19061;BMP280;9663;48.996;8.334;2022-09-01T12:09:03;100369.22;;;42.27
19061;BMP280;9663;48.996;8.334;2022-09-01T12:11:33;100373.81;;;41.61
19061;BMP280;9663;48.996;8.334;2022-09-01T12:14:10;100370.88;;;41.03
19061;BMP280;9663;48.996;8.334;2022-09-01T12:16:40;100370.34;;;40.32
19061;BMP280;9663;48.996;8.334;2022-09-01T12:19:07;100369.13;;;39.38
19061;BMP280;9663;48.996;8.334;2022-09-01T12:21:42;100367.97;;;38.32
19061;BMP280;9663;48.996;8.334;2022-09-01T12:26:45;100380.00;;;36.75
19061;BMP280;9663;48.996;8.334;2022-09-01T12:29:12;100368.56;;;36.99
19061;BMP280;9663;48.996;8.334;2022-09-01T12:31:43;100369.09;;;37.32
19061;BMP280;9663;48.996;8.334;2022-09-01T12:34:44;100362.69;;;38.46
19061;BMP280;9663;48.996;8.334;2022-09-01T12:37:22;100361.47;;;39.78
19061;BMP280;9663;48.996;8.334;2022-09-01T12:39:55;100355.19;;;40.81
19061;BMP280;9663;48.996;8.334;2022-09-01T12:42:33;100354.00;;;41.76
19061;BMP280;9663;48.996;8.334;2022-09-01T12:45:02;100350.97;;;42.56
19061;BMP280;9663;48.996;8.334;2022-09-01T12:52:46;100347.34;;;44.19
19061;BMP280;9663;48.996;8.334;2022-09-01T12:58:06;100331.19;;;45.09
19061;BMP280;9663;48.996;8.334;2022-09-01T13:00:54;100330.50;;;45.49
19061;BMP280;9663;48.996;8.334;2022-09-01T13:03:21;100323.41;;;45.84
19061;BMP280;9663;48.996;8.334;2022-09-01T13:05:56;100332.16;;;45.61
19061;BMP280;9663;48.996;8.334;2022-09-01T13:08:41;100329.78;;;45.24
19061;BMP280;9663;48.996;8.334;2022-09-01T13:11:17;100326.88;;;45.26
19061;BMP280;9663;48.996;8.334;2022-09-01T13:13:43;100333.41;;;45.48
19061;BMP280;9663;48.996;8.334;2022-09-01T13:16:08;100326.09;;;45.55
19061;BMP280;9663;48.996;8.334;2022-09-01T13:18:40;100322.25;;;45.62
19061;BMP280;9663;48.996;8.334;2022-09-01T13:21:06;100321.91;;;45.58
19061;BMP280;9663;48.996;8.334;2022-09-01T13:23:32;100322.25;;;45.62
19061;BMP280;9663;48.996;8.334;2022-09-01T13:25:58;100309.00;;;45.78
19061;BMP280;9663;48.996;8.334;2022-09-01T13:28:25;100314.56;;;45.54
19061;BMP280;9663;48.996;8.334;2022-09-01T13:30:56;100320.47;;;45.09
19061;BMP280;9663;48.996;8.334;2022-09-01T13:33:24;100311.56;;;44.44
19061;BMP280;9663;48.996;8.334;2022-09-01T13:35:52;100315.06;;;43.59
19061;BMP280;9663;48.996;8.334;2022-09-01T13:38:19;100308.69;;;42.66
19061;BMP280;9663;48.996;8.334;2022-09-01T13:40:48;100303.19;;;41.84
19061;BMP280;9663;48.996;8.334;2022-09-01T13:43:17;100309.50;;;41.05
19061;BMP280;9663;48.996;8.334;2022-09-01T13:45:44;100311.56;;;40.42
19061;BMP280;9663;48.996;8.334;2022-09-01T13:48:11;100313.81;;;39.90
19061;BMP280;9663;48.996;8.334;2022-09-01T13:50:38;100312.94;;;39.48
19061;BMP280;9663;48.996;8.334;2022-09-01T13:53:05;100312.53;;;39.16
19061;BMP280;9663;48.996;8.334;2022-09-01T13:55:39;100310.13;;;39.00
19061;BMP280;9663;48.996;8.334;2022-09-01T13:58:05;100312.09;;;39.27
19061;BMP280;9663;48.996;8.334;2022-09-01T14:00:36;100305.25;;;39.95
19061;BMP280;9663;48.996;8.334;2022-09-01T14:03:17;100304.53;;;40.55
19061;BMP280;9663;48.996;8.334;2022-09-01T14:05:46;100294.47;;;41.31
19061;BMP280;9663;48.996;8.334;2022-09-01T14:08:17;100293.75;;;41.82
19061;BMP280;9663;48.996;8.334;2022-09-01T14:10:46;100296.06;;;42.23
19061;BMP280;9663;48.996;8.334;2022-09-01T14:13:14;100289.59;;;42.76
19061;BMP280;9663;48.996;8.334;2022-09-01T14:15:41;100283.03;;;43.28
19061;BMP280;9663;48.996;8.334;2022-09-01T14:18:07;100278.00;;;43.75
19061;BMP280;9663;48.996;8.334;2022-09-01T14:20:37;100276.66;;;44.15
19061;BMP280;9663;48.996;8.334;2022-09-01T14:23:07;100275.69;;;44.51
19061;BMP280;9663;48.996;8.334;2022-09-01T14:25:36;100277.34;;;44.88
19061;BMP280;9663;48.996;8.334;2022-09-01T14:28:06;100269.75;;;45.32
19061;BMP280;9663;48.996;8.334;2022-09-01T14:30:32;100270.09;;;45.64
19061;BMP280;9663;48.996;8.334;2022-09-01T14:33:00;100263.63;;;45.83
19061;BMP280;9663;48.996;8.334;2022-09-01T14:35:26;100261.19;;;46.04
19061;BMP280;9663;48.996;8.334;2022-09-01T14:37:54;100252.47;;;46.20
19061;BMP280;9663;48.996;8.334;2022-09-01T14:40:22;100245.66;;;46.41
19061;BMP280;9663;48.996;8.334;2022-09-01T14:42:51;100245.06;;;46.61
19061;BMP280;9663;48.996;8.334;2022-09-01T14:45:25;100249.63;;;46.61
19061;BMP280;9663;48.996;8.334;2022-09-01T14:47:54;100239.50;;;46.40
19061;BMP280;9663;48.996;8.334;2022-09-01T14:50:21;100243.13;;;46.11
19061;BMP280;9663;48.996;8.334;2022-09-01T14:52:50;100248.91;;;45.34
19061;BMP280;9663;48.996;8.334;2022-09-01T14:55:17;100249.03;;;44.63
19061;BMP280;9663;48.996;8.334;2022-09-01T14:57:43;100248.91;;;43.67
19061;BMP280;9663;48.996;8.334;2022-09-01T15:00:11;100256.22;;;42.54
19061;BMP280;9663;48.996;8.334;2022-09-01T15:02:40;100251.97;;;42.14
19061;BMP280;9663;48.996;8.334;2022-09-01T15:05:08;100247.63;;;42.33
19061;BMP280;9663;48.996;8.334;2022-09-01T15:07:34;100245.50;;;42.73
19061;BMP280;9663;48.996;8.334;2022-09-01T15:10:01;100242.19;;;43.21
19061;BMP280;9663;48.996;8.334;2022-09-01T15:12:27;100247.91;;;43.62
19061;BMP280;9663;48.996;8.334;2022-09-01T15:14:58;100233.91;;;43.90
19061;BMP280;9663;48.996;8.334;2022-09-01T15:17:26;100235.38;;;44.11
19061;BMP280;9663;48.996;8.334;2022-09-01T15:19:52;100225.06;;;44.14
19061;BMP280;9663;48.996;8.334;2022-09-01T15:22:18;100224.47;;;44.12
19061;BMP280;9663;48.996;8.334;2022-09-01T15:24:44;100232.94;;;44.27
19061;BMP280;9663;48.996;8.334;2022-09-01T15:27:10;100229.88;;;44.66
19061;BMP280;9663;48.996;8.334;2022-09-01T15:29:36;100219.00;;;45.08
19061;BMP280;9663;48.996;8.334;2022-09-01T15:32:11;100216.22;;;45.43
19061;BMP280;9663;48.996;8.334;2022-09-01T15:34:38;100217.22;;;45.71
19061;BMP280;9663;48.996;8.334;2022-09-01T15:37:04;100214.94;;;45.86
19061;BMP280;9663;48.996;8.334;2022-09-01T15:39:32;100212.22;;;45.75
19061;BMP280;9663;48.996;8.334;2022-09-01T15:41:57;100216.69;;;45.40